Time;durP1;ratioP1;P1;durP2;ratioP2;P2;SDS_P1;SDS_P2;PMS_P1;PMS_P2;Temp;Humidity;BMP_temperature;BMP_pressure;BME280_temperature;BME280_humidity;BME280_pressure;Samples;Min_cycle;Max_cycle;Signal;HPM_P1;HPM_P2
2021/01/16 00:03:40;;;;;;;17.77;7.63;;;;;;;-1.22;87.10;101140.19;3679683;78;34347;-95
2021/01/16 00:08:42;;;;;;;15.67;6.70;;;;;;;-1.27;86.97;101142.93;3675581;78;98425;-96
2021/01/16 00:13:43;;;;;;;19.33;6.97;;;;;;;-1.28;87.25;101148.60;3684481;78;33875;-96
2021/01/16 00:18:44;;;;;;;14.33;7.07;;;;;;;-1.25;87.29;101144.83;3680873;78;98481;-94
2021/01/16 00:23:45;;;;;;;18.20;8.17;;;;;;;-1.25;87.29;101143.47;3691496;78;33293;-95
2021/01/16 00:28:46;;;;;;;19.20;7.83;;;;;;;-1.17;87.26;101151.48;3662227;79;98171;-96
2021/01/16 00:33:47;;;;;;;18.10;7.17;;;;;;;-1.22;87.42;101151.55;3678839;79;33316;-95
2021/01/16 00:38:48;;;;;;;15.90;6.47;;;;;;;-1.23;87.49;101144.52;3662807;79;98357;-95
2021/01/16 00:43:49;;;;;;;16.90;8.17;;;;;;;-1.29;87.36;101145.64;3706883;78;32490;-94
2021/01/16 00:48:50;;;;;;;18.27;7.33;;;;;;;-1.27;87.64;101140.23;3715905;77;97630;-96
2021/01/16 00:53:51;;;;;;;17.27;7.27;;;;;;;-1.25;87.88;101143.47;3732078;77;27494;-95
2021/01/16 00:58:52;;;;;;;15.70;8.13;;;;;;;-1.30;87.72;101146.20;3699408;78;98542;-94
2021/01/16 01:03:53;;;;;;;17.97;6.90;;;;;;;-1.35;87.67;101137.32;3695168;78;28530;-95
2021/01/16 01:08:54;;;;;;;17.42;7.85;;;;;;;-1.41;87.87;101134.40;3728515;77;98276;-95
2021/01/16 01:13:55;;;;;;;23.20;10.18;;;;;;;-1.35;88.08;101131.92;3699843;78;31886;-94
2021/01/16 01:18:56;;;;;;;16.90;7.30;;;;;;;-1.25;88.20;101139.95;3719342;78;97910;-96
2021/01/16 01:23:56;;;;;;;19.50;7.60;;;;;;;-1.25;87.96;101138.60;3714644;78;31449;-95
2021/01/16 01:28:57;;;;;;;18.17;8.00;;;;;;;-1.29;88.08;101132.14;3708519;78;98327;-95
2021/01/16 01:33:58;;;;;;;14.93;7.30;;;;;;;-1.25;88.09;101137.25;3725347;78;29893;-96
2021/01/16 01:38:59;;;;;;;14.87;7.03;;;;;;;-1.31;88.15;101132.42;3707643;78;97588;-94
2021/01/16 01:44:00;;;;;;;17.53;6.40;;;;;;;-1.30;88.32;101139.98;3704428;78;25848;-95
2021/01/16 01:49:04;;;;;;;13.83;5.87;;;;;;;-1.31;88.41;101148.63;3698342;78;98221;-96
2021/01/16 01:54:07;;;;;;;14.70;5.43;;;;;;;-1.30;88.46;101146.20;3635871;79;34966;-95
2021/01/16 01:59:08;;;;;;;14.47;6.27;;;;;;;-1.30;88.50;101144.03;3622793;80;98291;-94
2021/01/16 02:04:10;;;;;;;12.43;5.30;;;;;;;-1.26;88.45;101147.23;3627535;80;35662;-94
2021/01/16 02:09:11;;;;;;;12.13;5.43;;;;;;;-1.31;88.59;101143.22;3624195;80;97574;-96
2021/01/16 02:14:13;;;;;;;13.07;5.03;;;;;;;-1.29;88.64;101141.59;3625491;80;35937;-96
2021/01/16 02:19:20;;;;;;;9.53;4.17;;;;;;;-1.31;88.49;101138.37;3628069;80;98296;-95
2021/01/16 02:24:24;;;;;;;10.05;5.08;;;;;;;-1.30;88.68;101139.45;3644057;80;25850;-95
2021/01/16 02:29:26;;;;;;;14.13;4.62;;;;;;;-1.30;88.63;101142.69;3596253;80;98761;-95
2021/01/16 02:34:40;;;;;;;11.13;4.77;;;;;;;-1.31;88.51;101145.13;3643025;79;35046;-95
2021/01/16 02:40:13;;;;;;;10.90;4.53;;;;;;;-1.30;88.72;101138.64;3638659;80;98217;-96
2021/01/16 02:45:19;;;;;;;9.77;4.30;;;;;;;-1.30;88.56;101135.94;3638232;80;34933;-96
2021/01/16 02:50:23;;;;;;;10.40;4.10;;;;;;;-1.32;88.48;101142.17;3618612;78;98224;-96
2021/01/16 02:55:24;;;;;;;11.70;4.07;;;;;;;-1.36;88.68;101144.63;3706350;78;34924;-95
2021/01/16 03:00:25;;;;;;;8.93;3.80;;;;;;;-1.37;88.36;101147.61;3691424;78;98221;-95
2021/01/16 03:05:26;;;;;;;10.57;4.03;;;;;;;-1.33;88.45;101144.59;3714998;78;34966;-96
2021/01/16 03:10:30;;;;;;;8.43;3.67;;;;;;;-1.34;88.18;101141.63;3703053;78;98315;-96
2021/01/16 03:15:32;;;;;;;10.73;4.13;;;;;;;-1.36;88.33;101141.11;3701342;78;26043;-96
2021/01/16 03:20:34;;;;;;;8.28;3.37;;;;;;;-1.41;88.33;101139.80;3662726;78;98335;-96
2021/01/16 03:25:35;;;;;;;11.93;4.20;;;;;;;-1.42;87.93;101138.98;3712794;78;34961;-96
2021/01/16 03:30:36;;;;;;;10.80;3.93;;;;;;;-1.42;88.04;101142.23;3700382;78;98456;-96
2021/01/16 03:35:37;;;;;;;9.90;3.90;;;;;;;-1.50;88.15;101138.23;3694420;78;35007;-96
2021/01/16 03:40:38;;;;;;;10.20;3.60;;;;;;;-1.50;88.15;101135.54;3700578;78;98341;-96
2021/01/16 03:45:39;;;;;;;9.10;3.30;;;;;;;-1.44;88.30;101134.95;3699491;78;34906;-96
2021/01/16 03:50:40;;;;;;;11.47;3.60;;;;;;;-1.49;87.82;101141.76;3698392;77;97309;-95
2021/01/16 03:55:41;;;;;;;6.57;2.57;;;;;;;-1.58;87.79;101145.56;3674422;78;34881;-96
2021/01/16 04:00:42;;;;;;;8.60;3.03;;;;;;;-1.58;87.53;101143.42;3673039;79;98053;-96
2021/01/16 04:05:43;;;;;;;7.73;3.33;;;;;;;-1.67;87.78;101139.16;3672016;79;34920;-96
2021/01/16 04:10:44;;;;;;;9.30;3.10;;;;;;;-1.63;87.76;101142.10;3668435;79;98020;-96
2021/01/16 04:15:46;;;;;;;12.13;3.60;;;;;;;-1.60;87.41;101148.30;3685660;78;34947;-96
2021/01/16 04:20:47;;;;;;;10.47;3.20;;;;;;;-1.70;87.57;101133.52;3665116;79;97948;-96
2021/01/16 04:25:48;;;;;;;10.23;3.77;;;;;;;-1.65;87.53;101133.49;3672556;79;33590;-96
2021/01/16 04:30:49;;;;;;;8.10;2.93;;;;;;;-1.75;87.17;101137.03;3674009;79;98181;-96
2021/01/16 04:35:50;;;;;;;7.10;3.20;;;;;;;-1.68;87.27;101138.08;3676827;79;25446;-96
2021/01/16 04:40:52;;;;;;;8.63;3.03;;;;;;;-1.80;86.74;101133.57;3664798;79;98108;-96
2021/01/16 04:45:56;;;;;;;10.60;3.40;;;;;;;-1.80;86.91;101126.27;3657449;79;32638;-96
2021/01/16 04:51:02;;;;;;;8.77;3.00;;;;;;;-1.74;86.97;101113.56;3685709;79;98047;-96
2021/01/16 04:56:05;;;;;;;9.33;3.60;;;;;;;-1.76;86.83;101121.14;3699181;78;25824;-96
2021/01/16 05:01:10;;;;;;;7.97;3.43;;;;;;;-1.70;86.28;101124.08;3692262;78;98031;-95
2021/01/16 05:06:13;;;;;;;8.50;2.97;;;;;;;-1.72;86.61;101124.34;3687483;78;25814;-96
2021/01/16 05:11:37;;;;;;;8.00;3.00;;;;;;;-1.77;85.78;101116.81;3680279;78;97918;-96
2021/01/16 05:16:59;;;;;;;7.90;3.30;;;;;;;-1.90;85.98;101118.78;3688889;77;25457;-96
2021/01/16 05:22:02;;;;;;;7.97;3.10;;;;;;;-1.92;85.90;101116.92;3683270;77;97905;-96
2021/01/16 05:27:06;;;;;;;11.60;4.20;;;;;;;-2.02;85.51;101114.27;3693632;78;30199;-96
2021/01/16 05:32:07;;;;;;;10.33;3.50;;;;;;;-2.00;85.76;101112.91;3681188;77;97913;-94
2021/01/16 05:37:08;;;;;;;9.70;3.73;;;;;;;-2.08;85.06;101115.37;3692738;78;32802;-96
2021/01/16 05:42:10;;;;;;;9.70;3.63;;;;;;;-2.14;85.33;101115.14;3690920;78;97795;-96
2021/01/16 05:47:12;;;;;;;9.57;3.50;;;;;;;-2.23;84.98;101100.08;3686743;78;32702;-96
2021/01/16 05:52:13;;;;;;;9.35;4.10;;;;;;;-2.28;85.12;101101.45;3642991;79;98085;-96
2021/01/16 05:57:17;;;;;;;10.87;4.53;;;;;;;-2.32;85.14;101091.47;3646558;80;32686;-96
2021/01/16 06:02:19;;;;;;;8.33;3.27;;;;;;;-2.32;84.83;101086.08;3632150;79;98886;-95
2021/01/16 06:07:22;;;;;;;11.97;4.20;;;;;;;-2.37;84.81;101095.00;3636030;80;25461;-96
2021/01/16 06:12:23;;;;;;;12.67;4.17;;;;;;;-2.32;84.73;101098.21;3640904;79;97386;-96
2021/01/16 06:17:26;;;;;;;9.50;3.73;;;;;;;-2.42;84.80;101105.80;3602695;80;32643;-96
2021/01/16 06:22:32;;;;;;;8.97;3.63;;;;;;;-2.37;84.73;101099.58;3644494;79;97773;-96
2021/01/16 06:27:37;;;;;;;8.28;3.47;;;;;;;-2.44;84.57;101098.55;3624344;79;25981;-96
2021/01/16 06:32:51;;;;;;;7.97;3.37;;;;;;;-2.47;84.08;101091.55;3620998;80;26032;-96
2021/01/16 06:37:52;;;;;;;7.40;2.93;;;;;;;-2.62;84.23;101088.90;3623320;79;97361;-96
2021/01/16 06:42:54;;;;;;;10.93;4.13;;;;;;;-2.60;84.13;101097.50;3615548;80;32582;-96
2021/01/16 06:48:01;;;;;;;9.43;3.62;;;;;;;-2.54;84.25;101091.02;3621770;79;98166;-96
2021/01/16 06:53:02;;;;;;;9.73;3.40;;;;;;;-2.60;84.07;101087.55;3667963;78;26461;-96
2021/01/16 06:58:17;;;;;;;10.13;5.03;;;;;;;-2.67;83.76;101091.61;3697506;78;97383;-96
2021/01/16 07:03:21;;;;;;;9.00;3.47;;;;;;;-2.68;83.51;101095.39;3708111;78;29197;-96
2021/01/16 07:08:23;;;;;;;11.70;3.87;;;;;;;-2.67;84.13;101099.69;3695500;78;97989;-96
2021/01/16 07:13:24;;;;;;;10.13;4.27;;;;;;;-2.75;83.71;101087.58;3729285;78;25500;-96
2021/01/16 07:18:27;;;;;;;9.13;3.57;;;;;;;-2.80;83.76;101084.89;3697122;78;97499;-96
2021/01/16 07:23:28;;;;;;;10.17;4.03;;;;;;;-2.79;83.74;101078.98;3715101;78;25471;-96
2021/01/16 07:28:29;;;;;;;9.50;4.00;;;;;;;-2.82;83.74;101073.60;3701115;78;97552;-96
2021/01/16 07:33:31;;;;;;;12.00;4.13;;;;;;;-2.79;83.65;101083.81;3652390;78;32580;-96
2021/01/16 07:38:35;;;;;;;12.80;4.33;;;;;;;-2.82;83.59;101070.09;3685920;78;98053;-96
2021/01/16 07:43:49;;;;;;;10.20;4.07;;;;;;;-2.88;83.49;101067.97;3701603;78;27276;-95
2021/01/16 07:48:57;;;;;;;11.50;4.30;;;;;;;-2.87;83.25;101062.02;3664961;78;98207;-96
2021/01/16 07:54:14;;;;;;;10.03;4.23;;;;;;;-2.88;83.52;101046.42;3687621;78;25466;-96
2021/01/16 07:59:21;;;;;;;15.55;4.22;;;;;;;-2.76;83.53;101052.83;3613303;79;97512;-96
2021/01/16 08:04:59;;;;;;;11.80;4.07;;;;;;;-2.72;82.95;101056.59;3636710;79;25444;-96
2021/01/16 08:10:02;;;;;;;14.53;5.10;;;;;;;-2.70;82.99;101050.38;3612056;78;98483;-96
2021/01/16 08:15:05;;;;;;;12.53;4.63;;;;;;;-2.75;82.88;101036.41;3620232;80;27400;-96
2021/01/16 08:20:20;;;;;;;12.17;5.67;;;;;;;-2.73;82.79;101040.17;3632416;77;97529;-96
2021/01/16 08:25:28;;;;;;;12.03;4.43;;;;;;;-2.65;82.68;101032.86;3616171;79;30074;-96
2021/01/16 08:30:31;;;;;;;10.20;4.70;;;;;;;-2.73;82.67;101032.88;3620500;78;97470;-96
2021/01/16 08:35:43;;;;;;;13.13;5.73;;;;;;;-2.70;82.36;101026.14;3633934;80;30134;-96
2021/01/16 08:41:05;;;;;;;12.97;4.97;;;;;;;-2.66;82.39;101034.77;3626535;79;97514;-96
2021/01/16 08:46:36;;;;;;;14.23;4.90;;;;;;;-2.69;82.16;101033.95;3634498;79;30230;-96
2021/01/16 08:51:51;;;;;;;13.72;4.30;;;;;;;-2.56;82.65;101010.48;3621526;79;97353;-96
2021/01/16 08:57:01;;;;;;;14.00;4.53;;;;;;;-2.49;81.59;101003.42;3623333;79;30811;-96
2021/01/16 09:02:09;;;;;;;13.63;5.40;;;;;;;-2.47;82.01;101002.63;3650820;79;97380;-96
2021/01/16 09:07:24;;;;;;;20.43;7.70;;;;;;;-2.44;81.83;101010.95;3636148;79;25866;-96
2021/01/16 09:12:40;;;;;;;17.07;6.40;;;;;;;-2.35;81.85;101021.96;3614440;79;97979;-96
2021/01/16 09:17:42;;;;;;;10.72;4.30;;;;;;;-2.24;81.84;101018.12;3612186;80;97581;-96
2021/01/16 09:22:43;;;;;;;11.17;3.87;;;;;;;-2.20;81.54;101019.98;3597658;79;30059;-96
2021/01/16 09:27:52;;;;;;;9.43;3.87;;;;;;;-2.17;80.93;101018.62;3623508;80;98124;-96
2021/01/16 09:32:54;;;;;;;9.40;3.60;;;;;;;-2.22;81.07;100996.55;3633423;80;30573;-96
2021/01/16 09:37:58;;;;;;;10.43;4.33;;;;;;;-2.09;81.55;100997.82;3587764;81;97364;-96
2021/01/16 09:42:59;;;;;;;10.23;4.43;;;;;;;-2.10;80.92;100987.56;3611280;80;31299;-96
2021/01/16 09:48:00;;;;;;;9.33;4.37;;;;;;;-1.91;81.48;100980.96;3614244;78;97517;-95
2021/01/16 09:53:07;;;;;;;19.67;8.77;;;;;;;-1.76;81.03;100968.71;3652067;78;52704;-88
2021/01/16 09:58:51;;;;;;;24.00;9.13;;;;;;;-1.78;80.76;100969.52;3681389;77;98321;-89
2021/01/16 10:03:59;;;;;;;16.43;5.93;;;;;;;-1.75;80.79;100955.48;3691391;77;33546;-89
2021/01/16 10:09:44;;;;;;;18.53;7.03;;;;;;;-1.58;80.88;100960.70;3681420;77;98747;-89
2021/01/16 10:14:34;;;;;;;18.67;7.47;;;;;;;-1.57;80.92;100957.47;3487512;82;32774;-91
2021/01/16 10:19:56;;;;;;;22.73;7.47;;;;;;;-1.46;81.10;100936.03;3652714;77;98219;-90
2021/01/16 10:25:17;;;;;;;28.33;10.53;;;;;;;-1.36;81.19;100929.19;3661784;78;32683;-88
2021/01/16 10:30:30;;;;;;;16.73;7.13;;;;;;;-1.26;80.62;100912.88;3664717;78;98447;-89
2021/01/16 10:35:38;;;;;;;14.00;5.23;;;;;;;-1.27;80.53;100908.02;3684153;77;33341;-89
2021/01/16 10:40:45;;;;;;;20.90;7.97;;;;;;;-1.20;80.04;100898.23;3650716;76;98764;-89
2021/01/16 10:45:58;;;;;;;;;;;;;;;-1.17;80.03;100898.98;3625235;79;26005;-88
2021/01/16 10:51:10;;;;;;;17.12;6.83;;;;;;;-1.21;80.31;100873.11;3585222;79;84650;-88
2021/01/16 10:56:29;;;;;;;15.80;5.60;;;;;;;-1.02;80.69;100878.02;3622160;78;32774;-89
2021/01/16 11:01:48;;;;;;;12.80;6.63;;;;;;;-0.89;80.48;100874.59;3519776;81;98183;-89
2021/01/16 11:06:59;;;;;;;15.70;4.97;;;;;;;-0.73;80.86;100867.11;3506173;82;32739;-88
2021/01/16 11:12:05;;;;;;;13.05;4.92;;;;;;;-0.84;79.29;100851.56;3515792;81;98264;-88
2021/01/16 11:17:17;;;;;;;12.43;4.30;;;;;;;-0.86;79.93;100860.52;3382894;84;26161;-88
2021/01/16 11:22:33;;;;;;;11.57;4.53;;;;;;;-0.84;80.29;100848.05;3520313;81;98370;-87
2021/01/16 11:27:49;;;;;;;11.20;3.93;;;;;;;-1.02;79.01;100837.50;3491540;82;32662;-88
2021/01/16 11:33:00;;;;;;;15.23;6.33;;;;;;;-1.05;79.47;100827.83;3462199;82;26048;-87
2021/01/16 11:38:11;;;;;;;13.53;4.90;;;;;;;-1.09;80.43;100825.45;3494371;81;98368;-89
2021/01/16 11:43:25;;;;;;;11.20;4.53;;;;;;;-1.05;80.41;100826.48;3548803;81;32799;-87
2021/01/16 11:48:27;;;;;;;13.23;5.57;;;;;;;-1.04;80.52;100830.22;3529522;80;97840;-96
2021/01/16 11:53:28;;;;;;;11.47;4.67;;;;;;;-0.96;80.77;100818.78;3485605;82;26350;-95
2021/01/16 11:58:31;;;;;;;11.97;5.10;;;;;;;-0.88;80.19;100810.00;3502750;82;97740;-96
2021/01/16 12:03:33;;;;;;;11.37;5.43;;;;;;;-0.95;80.06;100793.90;3487337;82;29208;-96
2021/01/16 12:40:59;;;;;;;13.98;5.37;;;;;;;-1.03;79.78;100764.33;3666977;79;34794;-96
2021/01/16 12:46:06;;;;;;;12.43;5.53;;;;;;;-1.05;79.58;100752.20;3709438;78;32664;-96
2021/01/16 12:51:09;;;;;;;14.83;6.05;;;;;;;-1.10;79.39;100749.58;3688461;78;97403;-96
2021/01/16 12:56:16;;;;;;;14.47;5.80;;;;;;;-1.15;79.71;100736.93;3720329;78;29076;-96
2021/01/16 13:01:19;;;;;;;14.03;5.70;;;;;;;-1.15;80.08;100722.64;3720236;78;97368;-95
2021/01/16 13:06:20;;;;;;;19.73;7.87;;;;;;;-1.13;80.12;100725.31;3709988;78;27242;-96
2021/01/16 13:11:24;;;;;;;16.37;6.17;;;;;;;-1.08;80.29;100717.67;3689237;78;97356;-96
2021/01/16 13:16:32;;;;;;;13.73;6.00;;;;;;;-1.07;80.15;100703.88;3731145;78;30096;-96
2021/01/16 13:21:33;;;;;;;12.30;5.12;;;;;;;-1.12;80.26;100702.61;3716360;78;97312;-96
2021/01/16 13:26:40;;;;;;;13.23;6.17;;;;;;;-1.08;80.59;100696.88;3710365;78;32524;-96
2021/01/16 13:31:45;;;;;;;14.37;6.37;;;;;;;-1.10;80.99;100695.56;3711689;77;98056;-96
2021/01/16 13:36:46;;;;;;;14.33;5.63;;;;;;;-1.08;81.09;100696.88;3721450;78;25821;-96
2021/01/16 13:41:47;;;;;;;17.57;6.63;;;;;;;-1.20;81.16;100695.15;3661067;77;98146;-96
2021/01/16 13:46:49;;;;;;;13.30;5.77;;;;;;;-1.21;81.42;100711.09;3615349;80;32689;-95
2021/01/16 13:51:51;;;;;;;22.13;9.10;;;;;;;-1.15;81.35;100703.17;3613320;80;97346;-96
2021/01/16 13:56:52;;;;;;;20.67;9.27;;;;;;;-1.18;81.41;100694.33;3610871;80;26287;-96
2021/01/16 14:02:00;;;;;;;18.50;7.47;;;;;;;-1.19;81.55;100688.67;3600752;80;97465;-96
2021/01/16 14:07:02;;;;;;;35.87;13.57;;;;;;;-1.19;81.43;100690.56;3616849;80;26313;-96
2021/01/16 14:12:14;;;;;;;16.90;8.18;;;;;;;-1.21;81.60;100676.00;3590108;80;98229;-96
2021/01/16 14:22:44;;;;;;;22.22;9.25;;;;;;;-1.34;81.90;100670.53;3664306;78;98032;-96
2021/01/16 14:27:47;;;;;;;17.35;8.05;;;;;;;-1.36;81.85;100671.38;3666880;78;98158;-96
2021/01/16 14:33:06;;;;;;;17.20;6.33;;;;;;;-1.44;82.05;100671.48;3675784;79;26380;-96
2021/01/16 14:38:16;;;;;;;17.75;8.70;;;;;;;-1.51;82.29;100670.25;3667117;79;97496;-95
2021/01/16 14:43:22;;;;;;;19.40;7.53;;;;;;;-1.55;82.40;100657.88;3622104;79;28250;-96
2021/01/16 14:48:23;;;;;;;18.67;8.50;;;;;;;-1.61;82.48;100653.66;3582154;80;97519;-96
2021/01/16 14:53:29;;;;;;;22.90;9.20;;;;;;;-1.62;82.74;100657.45;3611360;80;27275;-96
2021/01/16 14:58:32;;;;;;;20.30;7.53;;;;;;;-1.64;82.82;100649.39;3591712;79;97508;-96
2021/01/16 15:03:40;;;;;;;15.87;6.67;;;;;;;-1.64;82.85;100648.05;3613645;80;52142;-96
2021/01/16 15:08:49;;;;;;;35.85;15.45;;;;;;;-1.64;82.82;100649.39;3584240;79;97511;-96
2021/01/16 15:13:51;;;;;;;17.77;8.37;;;;;;;-1.61;82.73;100632.07;3586854;80;25803;-96
2021/01/16 15:18:53;;;;;;;19.67;8.50;;;;;;;-1.68;82.97;100633.52;3587585;79;98261;-96
2021/01/16 15:23:54;;;;;;;17.00;8.00;;;;;;;-1.69;83.24;100627.88;3525083;81;25915;-96
2021/01/16 15:28:55;;;;;;;21.17;9.90;;;;;;;-1.72;83.16;100606.86;3523335;81;98329;-96
2021/01/16 15:33:56;;;;;;;15.30;7.27;;;;;;;-1.74;83.41;100607.71;3561831;80;32535;-96
2021/01/16 15:38:59;;;;;;;17.93;7.73;;;;;;;-1.74;83.35;100615.80;3566832;81;97532;-95
2021/01/16 15:44:00;;;;;;;15.53;7.00;;;;;;;-1.80;83.64;100605.62;3591468;80;25907;-96
2021/01/16 15:49:05;;;;;;;19.03;7.53;;;;;;;-1.83;83.62;100609.45;3577756;80;98293;-96
2021/01/16 15:54:12;;;;;;;21.00;8.47;;;;;;;-1.78;83.80;100611.55;3588879;80;25547;-96
2021/01/16 15:59:14;;;;;;;24.73;9.43;;;;;;;-1.75;83.79;100609.59;3551401;80;97504;-96
2021/01/16 16:04:17;;;;;;;21.95;8.03;;;;;;;-1.74;83.90;100604.48;3522822;80;32138;-96
2021/01/16 16:09:20;;;;;;;21.03;9.00;;;;;;;-1.71;83.88;100602.53;3556127;80;98281;-96
2021/01/16 16:14:21;;;;;;;22.07;7.73;;;;;;;-1.68;84.12;100603.84;3600279;79;25491;-96
2021/01/16 16:19:22;;;;;;;19.70;7.97;;;;;;;-1.72;84.06;100598.77;3598302;80;97525;-96
2021/01/16 16:24:23;;;;;;;18.73;8.00;;;;;;;-1.70;84.23;100592.55;3582032;80;32644;-96
2021/01/16 16:29:23;;;;;;;18.83;7.27;;;;;;;-1.66;84.45;100588.97;3579967;81;98312;-96
2021/01/16 16:34:26;;;;;;;22.87;9.00;;;;;;;-1.62;84.48;100587.30;3558463;81;33198;-96
2021/01/16 16:39:28;;;;;;;22.27;7.70;;;;;;;-1.62;84.58;100577.86;3587452;80;98430;-96
2021/01/16 16:44:29;;;;;;;18.03;7.40;;;;;;;-1.62;84.62;100585.13;3587777;81;26315;-95
2021/01/16 16:49:30;;;;;;;27.67;11.07;;;;;;;-1.62;84.72;100579.20;3582090;80;98296;-96
2021/01/16 16:54:31;;;;;;;24.00;8.73;;;;;;;-1.63;84.77;100580.84;3581148;81;32549;-96
2021/01/16 16:59:35;;;;;;;21.90;7.70;;;;;;;-1.58;84.65;100575.37;3544688;81;97525;-95
2021/01/16 17:04:36;;;;;;;23.90;8.83;;;;;;;-1.65;84.84;100571.68;3569005;80;26295;-96
2021/01/16 17:09:37;;;;;;;17.90;7.40;;;;;;;-1.63;84.91;100563.30;3581348;81;97736;-95
2021/01/16 17:14:38;;;;;;;20.00;7.63;;;;;;;-1.60;85.16;100564.08;3589696;80;32660;-96
2021/01/16 17:19:39;;;;;;;22.67;8.37;;;;;;;-1.57;85.11;100553.49;3582366;79;97711;-95
2021/01/16 17:24:44;;;;;;;17.47;6.60;;;;;;;-1.56;84.98;100551.58;3635847;78;32659;-95
2021/01/16 17:29:45;;;;;;;17.02;6.95;;;;;;;-1.54;85.04;100554.23;3609188;78;97578;-95
2021/01/16 17:34:49;;;;;;;19.50;7.70;;;;;;;-1.56;85.01;100541.59;3616419;78;32603;-94
2021/01/16 17:45:02;;;;;;;17.07;7.72;;;;;;;-1.50;85.14;100536.91;3593203;79;34018;-96
2021/01/16 17:55:13;;;;;;;14.75;6.40;;;;;;;-1.42;84.99;100538.37;3603225;80;34669;-96
2021/01/16 18:00:16;;;;;;;19.20;8.67;;;;;;;-1.46;85.03;100550.07;3598633;80;98243;-96
2021/01/16 18:05:18;;;;;;;19.53;9.27;;;;;;;-1.47;85.07;100539.03;3612390;79;30231;-96
2021/01/16 18:20:39;;;;;;;24.57;9.95;;;;;;;-1.39;85.50;100531.59;3591551;79;98169;-96
2021/01/16 18:25:42;;;;;;;25.17;10.90;;;;;;;-1.37;85.49;100535.59;3615562;79;32525;-96
2021/01/16 19:20:47;;;;;;;19.02;8.33;;;;;;;-1.29;86.37;100531.42;3557391;79;97834;-96
2021/01/16 19:31:00;;;;;;;22.90;9.57;;;;;;;-1.29;86.52;100539.52;3581723;79;26882;-96
2021/01/16 20:22:31;;;;;;;31.80;12.97;;;;;;;-1.18;87.26;100540.42;3502409;80;97452;-96
2021/01/16 20:27:34;;;;;;;24.87;10.53;;;;;;;-1.28;87.34;100544.64;3493219;82;27864;-96
2021/01/16 20:32:40;;;;;;;24.17;11.03;;;;;;;-1.26;87.82;100555.15;3645588;79;25457;-96
2021/01/16 20:37:43;;;;;;;25.27;11.90;;;;;;;-1.20;87.96;100561.49;3636790;79;98249;-96
2021/01/16 20:42:46;;;;;;;23.97;11.27;;;;;;;-1.07;88.12;100557.23;3696041;79;26554;-96
2021/01/16 20:47:53;;;;;;;23.30;11.10;;;;;;;-1.02;88.36;100568.76;3717013;77;98462;-96
2021/01/16 20:52:54;;;;;;;24.95;11.20;;;;;;;-1.00;88.32;100566.55;3717015;78;26345;-96
2021/01/16 20:57:55;;;;;;;23.00;10.33;;;;;;;-0.96;88.39;100564.05;3703429;78;97692;-96
2021/01/16 21:02:56;;;;;;;21.70;9.80;;;;;;;-0.92;88.42;100576.69;3698150;78;32552;-96
2021/01/16 21:07:57;;;;;;;16.32;9.00;;;;;;;-0.90;88.51;100564.21;3712575;78;97597;-96
2021/01/16 21:12:58;;;;;;;23.40;9.67;;;;;;;-0.89;88.62;100567.97;3700449;78;32661;-96
2021/01/16 21:17:59;;;;;;;21.17;9.90;;;;;;;-0.91;88.43;100568.83;3707844;78;98096;-96
2021/01/16 21:23:00;;;;;;;20.00;10.30;;;;;;;-0.88;88.55;100571.48;3737565;78;32788;-96
2021/01/16 21:28:01;;;;;;;19.87;9.70;;;;;;;-0.84;88.55;100573.28;3724141;78;98294;-96
2021/01/16 21:33:03;;;;;;;26.13;12.13;;;;;;;-0.89;88.57;100576.08;3728385;78;32530;-96
2021/01/16 21:38:05;;;;;;;25.53;12.70;;;;;;;-0.88;88.54;100577.67;3728603;78;97674;-96
2021/01/16 21:43:09;;;;;;;25.70;12.57;;;;;;;-0.87;88.49;100577.95;3726102;78;32893;-96
2021/01/16 21:48:10;;;;;;;20.53;11.23;;;;;;;-0.83;88.53;100583.55;3733081;77;98438;-96
2021/01/16 21:53:11;;;;;;;22.77;11.50;;;;;;;-0.86;88.41;100578.73;3684361;78;32589;-96
2021/01/16 21:58:12;;;;;;;22.70;11.85;;;;;;;-0.84;88.50;100582.73;3706188;78;98319;-96
2021/01/16 22:03:13;;;;;;;30.47;14.67;;;;;;;-0.83;88.41;100584.34;3725565;78;32600;-96
2021/01/16 22:08:17;;;;;;;42.00;19.63;;;;;;;-0.84;88.49;100585.98;3723943;77;98289;-96
2021/01/16 22:13:18;;;;;;;29.70;15.17;;;;;;;-0.76;88.33;100587.47;3713571;78;25426;-96
2021/01/16 22:18:19;;;;;;;22.50;11.40;;;;;;;-0.72;88.28;100601.97;3676769;78;98647;-96
2021/01/16 22:23:20;;;;;;;20.13;10.47;;;;;;;-0.71;87.87;100603.56;3636765;80;32775;-96
2021/01/16 22:28:21;;;;;;;36.67;16.63;;;;;;;-0.77;87.73;100602.63;3621081;80;98025;-96
2021/01/16 22:33:22;;;;;;;91.83;38.27;;;;;;;-0.79;87.51;100608.86;3632361;80;32757;-96
2021/01/16 22:38:23;;;;;;;73.80;30.90;;;;;;;-0.80;87.46;100612.12;3626856;79;97667;-96
2021/01/16 22:43:23;;;;;;;24.03;11.60;;;;;;;-0.80;87.25;100608.61;3638874;79;32577;-96
2021/01/16 22:48:25;;;;;;;45.03;13.43;;;;;;;-0.85;87.48;100605.45;3636993;79;98488;-95
2021/01/16 22:53:26;;;;;;;26.57;8.33;;;;;;;-0.98;87.44;100611.64;3666094;79;31905;-96
2021/01/16 22:58:26;;;;;;;25.60;8.33;;;;;;;-1.20;85.91;100628.20;3664669;78;97548;-96
2021/01/16 23:03:28;;;;;;;25.40;8.10;;;;;;;-1.35;85.74;100630.61;3652736;78;25982;-95
2021/01/16 23:08:31;;;;;;;27.67;9.57;;;;;;;-1.59;84.66;100639.88;3680313;78;98277;-96
2021/01/16 23:13:33;;;;;;;44.90;15.67;;;;;;;-1.69;85.34;100646.77;3640345;80;27508;-96
2021/01/16 23:18:35;;;;;;;21.20;7.55;;;;;;;-1.74;84.58;100648.99;3657899;78;97638;-96
2021/01/16 23:23:36;;;;;;;20.97;6.83;;;;;;;-1.85;84.53;100643.48;3780704;77;25867;-96
2021/01/16 23:28:40;;;;;;;18.23;6.03;;;;;;;-1.87;81.81;100651.59;3760829;77;98324;-96
2021/01/16 23:33:44;;;;;;;20.63;8.07;;;;;;;-2.06;82.44;100656.95;3757014;77;27530;-96
2021/01/16 23:38:45;;;;;;;28.73;8.95;;;;;;;-2.14;83.47;100654.88;3784512;77;98684;-96
2021/01/16 23:43:46;;;;;;;38.53;12.77;;;;;;;-2.27;82.75;100651.55;3776711;76;26338;-96
2021/01/16 23:48:47;;;;;;;32.83;10.03;;;;;;;-2.31;83.23;100646.45;3788536;76;98405;-96
2021/01/16 23:53:48;;;;;;;36.17;9.77;;;;;;;-2.40;82.96;100652.77;3783242;76;26057;-96
2021/01/16 23:58:50;;;;;;;26.67;10.97;;;;;;;-2.40;82.89;100665.68;3780130;76;97480;-96
